createdAt,value
2022-08-09T00:00:20.939Z,71.43
2022-08-09T00:02:51.486Z,71.66
2022-08-09T00:06:19.696Z,72.23
2022-08-09T00:08:10.061Z,72.34
2022-08-09T00:10:40.625Z,72.46
2022-08-09T00:13:17.093Z,72.57
2022-08-09T00:15:59.599Z,72.28
2022-08-09T00:18:34.546Z,72.42
2022-08-09T00:21:04.911Z,72.38
2022-08-09T00:23:54.901Z,72.42
2022-08-09T00:26:32.460Z,72.59
2022-08-09T00:29:01.018Z,72.70
2022-08-09T00:31:59.131Z,72.50
2022-08-09T00:34:14.924Z,72.74
2022-08-09T00:36:48.886Z,72.82
2022-08-09T00:40:09.707Z,72.90
2022-08-09T00:44:19.392Z,72.66
2022-08-09T00:44:53.758Z,72.76
2022-08-09T00:47:24.930Z,72.82
2022-08-09T00:49:55.120Z,73.04
2022-08-09T00:52:30.639Z,73.12
2022-08-09T00:55:03.731Z,72.90
2022-08-09T00:57:34.594Z,72.99
2022-08-09T01:00:22.068Z,73.00
2022-08-09T01:02:53.757Z,73.14
2022-08-09T01:05:50.686Z,72.94
2022-08-09T01:08:49.445Z,72.78
2022-08-09T01:11:20.316Z,73.33
2022-08-09T01:14:07.054Z,72.93
2022-08-09T01:16:47.442Z,73.27
2022-08-09T01:19:39.712Z,73.39
2022-08-09T01:22:46.244Z,72.92
2022-08-09T01:25:41.655Z,73.28
2022-08-09T01:28:10.632Z,73.49
2022-08-09T01:30:52.682Z,73.67
2022-08-09T01:33:26.231Z,73.78
2022-08-09T01:36:19.582Z,73.51
2022-08-09T01:38:49.229Z,74.02
2022-08-09T01:41:26.117Z,74.20
2022-08-09T01:43:57.932Z,74.35
2022-08-09T01:46:31.710Z,74.30
2022-08-09T01:49:09.521Z,74.51
2022-08-09T01:51:42.900Z,74.58
2022-08-09T01:54:13.759Z,74.61
2022-08-09T01:56:43.345Z,74.91
2022-08-09T01:59:20.108Z,74.75
2022-08-09T02:01:59.811Z,74.88
2022-08-09T02:04:29.886Z,75.02
2022-08-09T02:07:17.957Z,74.74
2022-08-09T02:10:15.239Z,75.20
2022-08-09T02:12:44.258Z,75.19
2022-08-09T02:15:16.687Z,75.35
2022-08-09T02:18:00.652Z,75.37
2022-08-09T02:20:41.010Z,75.16
2022-08-09T02:23:12.819Z,75.26
2022-08-09T02:25:49.501Z,75.57
2022-08-09T02:28:34.445Z,75.54
2022-08-09T02:31:06.191Z,75.53
2022-08-09T02:34:06.350Z,75.87
2022-08-09T02:36:31.532Z,75.59
2022-08-09T02:39:05.649Z,75.83
2022-08-09T02:41:45.710Z,76.00
2022-08-09T02:44:29.332Z,76.36
2022-08-09T02:47:02.179Z,76.62
2022-08-09T02:49:38.822Z,76.55
2022-08-09T02:52:13.626Z,76.57
2022-08-09T02:54:54.650Z,76.51
2022-08-09T02:57:26.814Z,76.56
2022-08-09T03:00:20.832Z,76.77
2022-08-09T03:03:00.113Z,76.79
2022-08-09T03:05:28.612Z,77.09
2022-08-09T03:07:55.888Z,77.29
2022-08-09T03:10:24.049Z,77.32
2022-08-09T03:12:52.694Z,77.44
2022-08-09T03:15:23.361Z,77.82
2022-08-09T03:17:53.810Z,77.78
2022-08-09T03:20:29.450Z,77.91
2022-08-09T03:23:00.321Z,77.75
2022-08-09T03:25:58.174Z,77.86
2022-08-09T03:28:30.571Z,77.94
2022-08-09T03:30:58.791Z,78.09
2022-08-09T03:33:53.282Z,78.13
2022-08-09T03:36:18.157Z,77.98
2022-08-09T03:38:49.873Z,78.03
2022-08-09T03:41:18.428Z,78.17
2022-08-09T03:44:03.265Z,78.37
2022-08-09T03:46:34.668Z,78.24
2022-08-09T03:49:08.242Z,78.63
2022-08-09T03:51:54.124Z,78.67
2022-08-09T03:54:29.549Z,78.52
2022-08-09T03:56:59.261Z,78.46
2022-08-09T03:59:42.757Z,78.82
2022-08-09T04:02:19.964Z,78.69
2022-08-09T04:04:55.534Z,79.10
2022-08-09T04:07:47.709Z,79.39
2022-08-09T04:10:13.941Z,79.16
2022-08-09T04:12:47.800Z,79.39
2022-08-09T04:15:39.107Z,79.11
2022-08-09T04:18:06.453Z,79.15
2022-08-09T04:20:33.358Z,79.06
2022-08-09T04:23:00.652Z,79.16
2022-08-09T04:25:29.291Z,79.14
2022-08-09T04:28:02.400Z,79.04
2022-08-09T04:30:31.720Z,78.95
2022-08-09T04:33:00.209Z,79.14
2022-08-09T04:35:32.811Z,79.07
2022-08-09T04:38:00.068Z,79.02
2022-08-09T04:40:48.273Z,79.09
2022-08-09T04:43:25.797Z,79.21
2022-08-09T04:45:53.943Z,79.07
2022-08-09T04:48:21.678Z,79.04
2022-08-09T04:50:50.558Z,78.78
2022-08-09T04:53:17.254Z,79.09
2022-08-09T04:55:58.787Z,78.99
2022-08-09T04:58:31.857Z,78.90
2022-08-09T05:01:01.910Z,78.01
2022-08-09T05:03:42.592Z,76.54
2022-08-09T05:06:26.713Z,71.13
2022-08-09T05:09:00.679Z,66.40
2022-08-09T05:11:30.689Z,63.36
2022-08-09T05:13:59.409Z,61.01
2022-08-09T05:16:31.491Z,59.43
2022-08-09T05:19:00.182Z,58.00
2022-08-09T05:21:30.152Z,56.27
2022-08-09T05:24:04.035Z,54.61
2022-08-09T05:26:45.671Z,53.79
2022-08-09T05:29:22.178Z,52.50
2022-08-09T05:31:57.084Z,51.67
2022-08-09T05:34:30.209Z,51.31
2022-08-09T05:36:59.124Z,51.02
2022-08-09T05:39:35.601Z,50.54
2022-08-09T05:42:04.619Z,50.12
2022-08-09T05:44:32.882Z,49.31
2022-08-09T05:47:05.686Z,49.47
2022-08-09T05:50:23.462Z,48.44
2022-08-09T05:52:19.909Z,48.48
2022-08-09T05:54:49.504Z,47.88
2022-08-09T05:57:17.524Z,47.10
2022-08-09T05:59:45.909Z,47.39
2022-08-09T06:02:17.138Z,46.79
2022-08-09T06:04:46.051Z,46.56
2022-08-09T06:07:21.597Z,45.78
2022-08-09T06:10:01.765Z,45.43
2022-08-09T06:12:29.998Z,45.75
2022-08-09T06:15:00.983Z,45.48
2022-08-09T06:17:39.067Z,44.20
2022-08-09T06:20:07.145Z,43.57
2022-08-09T06:22:37.249Z,43.13
2022-08-09T06:25:08.592Z,43.38
2022-08-09T06:27:43.205Z,43.13
2022-08-09T06:30:20.460Z,42.61
2022-08-09T06:32:59.007Z,42.89
2022-08-09T06:35:56.044Z,43.27
2022-08-09T06:38:31.943Z,42.20
2022-08-09T06:41:04.877Z,41.94
2022-08-09T06:43:46.258Z,41.36
2022-08-09T06:46:40.546Z,41.19
2022-08-09T06:49:02.855Z,41.15
2022-08-09T06:51:30.292Z,41.04
2022-08-09T06:54:00.672Z,40.65
2022-08-09T06:56:31.062Z,40.83
2022-08-09T07:00:50.666Z,40.78
2022-08-09T07:01:54.291Z,41.01
2022-08-09T07:04:26.882Z,40.50
2022-08-09T07:07:00.198Z,39.97
2022-08-09T07:09:55.497Z,39.26
2022-08-09T07:12:18.686Z,38.92
2022-08-09T07:14:51.198Z,37.99
2022-08-09T07:17:20.230Z,37.68
2022-08-09T07:19:55.482Z,37.67
2022-08-09T07:22:34.364Z,38.49
2022-08-09T07:25:05.326Z,39.06
2022-08-09T07:27:43.053Z,38.77
2022-08-09T07:30:21.763Z,38.57
2022-08-09T07:32:52.015Z,38.04
2022-08-09T07:35:19.284Z,37.84
2022-08-09T07:37:47.896Z,38.00
2022-08-09T07:40:27.103Z,37.08
2022-08-09T07:42:58.452Z,37.61
2022-08-09T07:45:39.621Z,37.08
2022-08-09T07:48:22.416Z,37.48
2022-08-09T07:51:09.824Z,36.57
2022-08-09T07:54:04.483Z,36.56
2022-08-09T07:56:31.782Z,36.23
2022-08-09T07:58:59.307Z,36.15
2022-08-09T08:01:33.903Z,36.35
2022-08-09T08:04:04.516Z,36.78
2022-08-09T08:06:37.334Z,36.68
2022-08-09T08:09:35.461Z,36.21
2022-08-09T08:12:34.364Z,35.90
2022-08-09T08:14:58.603Z,36.89
2022-08-09T08:17:35.355Z,37.13
2022-08-09T08:20:19.482Z,36.48
2022-08-09T08:23:01.330Z,36.19
2022-08-09T08:25:43.867Z,35.55
2022-08-09T08:28:14.242Z,35.69
2022-08-09T08:30:45.059Z,36.32
2022-08-09T08:33:21.880Z,35.49
2022-08-09T08:35:59.874Z,36.36
2022-08-09T08:38:30.293Z,36.50
2022-08-09T08:40:58.173Z,37.00
2022-08-09T08:43:27.968Z,35.67
2022-08-09T08:46:24.952Z,35.83
2022-08-09T08:48:53.967Z,35.97
2022-08-09T08:51:23.949Z,36.21
2022-08-09T08:54:04.452Z,37.05
2022-08-09T08:56:38.490Z,36.72
2022-08-09T08:59:20.157Z,36.65
2022-08-09T09:01:53.306Z,36.26
2022-08-09T09:04:28.845Z,36.23
2022-08-09T09:07:00.721Z,36.00
2022-08-09T09:09:58.043Z,35.40
2022-08-09T09:12:29.147Z,36.38
2022-08-09T09:14:58.809Z,36.97
2022-08-09T09:17:25.530Z,36.83
2022-08-09T09:20:15.794Z,37.96
2022-08-09T09:23:01.613Z,38.08
2022-08-09T09:26:03.097Z,37.76
2022-08-09T09:29:01.975Z,38.04
2022-08-09T09:31:17.577Z,37.80
2022-08-09T09:34:14.645Z,38.55
2022-08-09T09:36:50.910Z,38.64
2022-08-09T09:39:23.451Z,39.37
2022-08-09T09:41:54.246Z,39.97
2022-08-09T09:44:27.729Z,39.77
2022-08-09T09:47:07.347Z,39.96
2022-08-09T09:50:13.647Z,38.54
2022-08-09T09:52:35.947Z,39.13
2022-08-09T09:55:24.207Z,39.71
2022-08-09T09:58:15.891Z,40.13
2022-08-09T10:00:52.708Z,40.36
2022-08-09T10:03:57.960Z,40.08
2022-08-09T10:06:42.646Z,40.21
2022-08-09T10:09:22.491Z,39.54
2022-08-09T10:12:14.586Z,40.30
2022-08-09T10:14:49.468Z,39.81
2022-08-09T10:17:50.653Z,40.02
2022-08-09T10:20:27.053Z,40.31
2022-08-09T10:23:21.145Z,39.97
2022-08-09T10:26:06.218Z,40.23
2022-08-09T10:28:37.430Z,40.13
2022-08-09T10:34:08.149Z,39.64
2022-08-09T10:36:39.126Z,39.24
2022-08-09T10:39:16.171Z,39.23
2022-08-09T10:41:48.696Z,38.91
2022-08-09T10:44:23.125Z,39.12
2022-08-09T10:48:17.023Z,39.02
2022-08-09T10:50:31.258Z,39.05
2022-08-09T10:53:19.392Z,38.56
2022-08-09T10:55:57.812Z,38.14
2022-08-09T10:58:32.379Z,37.66
2022-08-09T11:03:02.903Z,37.84
2022-08-09T11:04:20.080Z,38.13
2022-08-09T11:06:59.678Z,37.98
2022-08-09T11:09:47.414Z,37.58
2022-08-09T11:12:30.160Z,37.06
2022-08-09T11:14:59.011Z,36.22
2022-08-09T11:17:27.817Z,36.53
2022-08-09T11:20:17.959Z,36.05
2022-08-09T11:22:55.583Z,36.02
2022-08-09T11:25:44.788Z,36.11
2022-08-09T11:28:55.976Z,36.81
2022-08-09T11:31:52.899Z,36.76
2022-08-09T11:34:44.813Z,36.81
2022-08-09T11:37:28.003Z,36.19
2022-08-09T11:40:11.037Z,34.96
2022-08-09T11:42:40.949Z,35.65
2022-08-09T11:45:20.683Z,35.92
2022-08-09T11:47:51.032Z,35.85
2022-08-09T11:50:55.820Z,35.74
2022-08-09T11:53:57.882Z,35.87
2022-08-09T11:56:42.499Z,35.87
2022-08-09T11:59:29.902Z,35.32
2022-08-09T12:02:16.290Z,34.96
2022-08-09T12:04:44.244Z,33.87
2022-08-09T12:07:11.201Z,34.03
2022-08-09T12:09:50.727Z,33.36
2022-08-09T12:12:28.749Z,33.71
2022-08-09T12:15:03.959Z,33.73
2022-08-09T12:17:44.420Z,34.21
2022-08-09T12:20:21.576Z,34.58
2022-08-09T12:22:53.179Z,34.41
2022-08-09T12:25:36.864Z,33.67
2022-08-09T12:29:15.411Z,32.76
2022-08-09T12:31:58.177Z,32.50
2022-08-09T12:34:05.261Z,32.37
2022-08-09T12:36:34.089Z,32.81
2022-08-09T12:39:14.439Z,32.86
2022-08-09T12:41:41.839Z,33.35
2022-08-09T12:44:12.950Z,33.07
2022-08-09T12:46:49.011Z,33.06
2022-08-09T12:49:17.294Z,32.82
2022-08-09T12:52:00.730Z,33.14
2022-08-09T12:54:29.132Z,32.63
2022-08-09T12:56:58.934Z,32.31
2022-08-09T12:59:57.948Z,32.49
2022-08-09T13:02:20.089Z,32.91
2022-08-09T13:05:02.351Z,32.89
2022-08-09T13:07:50.447Z,33.53
2022-08-09T13:10:17.109Z,33.70
2022-08-09T13:12:59.090Z,33.75
2022-08-09T13:15:35.890Z,32.68
2022-08-09T13:18:05.814Z,32.58
2022-08-09T13:22:34.306Z,32.37
2022-08-09T13:24:16.422Z,31.95
2022-08-09T13:26:42.323Z,31.80
2022-08-09T13:29:13.214Z,32.13
2022-08-09T13:32:17.074Z,32.94
2022-08-09T13:34:47.127Z,32.75
2022-08-09T13:37:50.589Z,33.33
2022-08-09T13:41:54.898Z,33.25
2022-08-09T13:42:50.665Z,33.47
2022-08-09T13:45:18.197Z,32.65
2022-08-09T13:47:49.077Z,32.86
2022-08-09T13:50:30.612Z,32.26
2022-08-09T13:52:58.668Z,32.18
2022-08-09T13:55:28.985Z,32.19
2022-08-09T13:57:58.395Z,32.50
2022-08-09T14:00:30.464Z,32.62
2022-08-09T14:03:03.277Z,32.80
2022-08-09T14:05:57.355Z,33.48
2022-08-09T14:08:29.824Z,33.17
2022-08-09T14:10:57.019Z,33.70
2022-08-09T14:14:15.175Z,33.61
2022-08-09T14:16:28.867Z,33.54
2022-08-09T14:18:58.193Z,33.04
2022-08-09T14:21:32.062Z,33.20
2022-08-09T14:24:01.110Z,32.79
2022-08-09T14:26:33.957Z,33.12
2022-08-09T14:29:08.043Z,33.19
2022-08-09T14:31:53.356Z,33.15
2022-08-09T14:34:30.966Z,33.12
2022-08-09T14:37:00.008Z,33.28
2022-08-09T14:39:46.062Z,32.39
2022-08-09T14:42:30.530Z,32.39
2022-08-09T14:46:39.056Z,33.26
2022-08-09T14:47:58.407Z,33.03
2022-08-09T14:50:32.338Z,32.81
2022-08-09T14:53:10.939Z,33.32
2022-08-09T14:55:42.036Z,33.60
2022-08-09T14:58:09.281Z,33.48
2022-08-09T15:00:36.978Z,33.88
2022-08-09T15:03:06.132Z,33.84
2022-08-09T15:05:37.344Z,33.87
2022-08-09T15:08:10.261Z,34.27
2022-08-09T15:10:38.230Z,34.39
2022-08-09T15:13:08.738Z,34.82
2022-08-09T15:15:41.113Z,34.72
2022-08-09T15:18:12.488Z,34.90
2022-08-09T15:22:00.632Z,34.84
2022-08-09T15:24:01.377Z,34.62
2022-08-09T15:26:19.010Z,34.97
2022-08-09T15:28:58.219Z,35.50
2022-08-09T15:31:40.708Z,35.53
2022-08-09T15:34:32.166Z,35.73
2022-08-09T15:36:58.105Z,35.78
2022-08-09T15:39:25.399Z,35.43
2022-08-09T15:42:01.616Z,35.62
2022-08-09T15:44:32.627Z,35.71
2022-08-09T15:47:00.887Z,35.88
2022-08-09T15:49:28.552Z,35.72
2022-08-09T15:52:03.943Z,35.68
2022-08-09T15:54:44.590Z,34.94
2022-08-09T15:57:18.931Z,34.68
2022-08-09T16:00:03.177Z,34.52
2022-08-09T16:02:29.767Z,34.70
2022-08-09T16:04:56.328Z,34.31
2022-08-09T16:07:22.902Z,34.59
2022-08-09T16:10:02.341Z,34.50
2022-08-09T16:12:32.602Z,34.63
2022-08-09T16:15:01.627Z,34.18
2022-08-09T16:17:33.655Z,34.37
2022-08-09T16:20:04.952Z,34.15
2022-08-09T16:22:42.278Z,34.24
2022-08-09T16:25:14.473Z,34.77
2022-08-09T16:27:42.526Z,34.15
2022-08-09T16:30:26.065Z,34.15
2022-08-09T16:33:11.510Z,34.56
2022-08-09T16:35:56.635Z,34.41
2022-08-09T16:38:25.318Z,34.49
2022-08-09T16:40:52.057Z,34.55
2022-08-09T16:43:18.831Z,34.45
2022-08-09T16:45:48.137Z,34.59
2022-08-09T16:48:39.806Z,34.29
2022-08-09T16:51:07.884Z,34.16
2022-08-09T16:53:35.608Z,34.29
2022-08-09T16:56:09.176Z,34.15
2022-08-09T16:58:37.562Z,34.35
2022-08-09T17:01:09.051Z,34.26
2022-08-09T17:03:36.531Z,34.34
2022-08-09T17:06:28.806Z,34.46
2022-08-09T17:09:03.141Z,33.91
2022-08-09T17:11:41.676Z,33.97
2022-08-09T17:14:26.283Z,34.23
2022-08-09T17:16:56.712Z,34.40
2022-08-09T17:20:06.005Z,34.26
2022-08-09T17:22:16.457Z,33.97
2022-08-09T17:24:55.482Z,34.30
2022-08-09T17:27:22.705Z,34.48
2022-08-09T17:29:50.734Z,34.45
2022-08-09T17:32:20.369Z,33.99
2022-08-09T17:35:07.561Z,34.79
2022-08-09T17:38:13.178Z,35.20
2022-08-09T17:40:27.742Z,35.26
2022-08-09T17:42:59.477Z,35.35
2022-08-09T17:45:45.497Z,35.50
2022-08-09T17:48:17.139Z,35.39
2022-08-09T17:50:48.509Z,36.05
2022-08-09T17:53:22.745Z,36.18
2022-08-09T17:55:55.328Z,36.33
2022-08-09T17:58:26.932Z,36.62
2022-08-09T18:00:58.453Z,36.66
2022-08-09T18:03:26.403Z,36.71
2022-08-09T18:05:57.177Z,36.85
2022-08-09T18:08:27.329Z,37.03
2022-08-09T18:11:02.041Z,37.41
2022-08-09T18:13:40.764Z,37.12
2022-08-09T18:16:29.555Z,37.17
2022-08-09T18:19:03.511Z,37.55
2022-08-09T18:21:40.907Z,37.49
2022-08-09T18:24:11.737Z,37.99
2022-08-09T18:26:46.494Z,38.21
2022-08-09T18:30:40.268Z,38.25
2022-08-09T18:32:04.951Z,38.14
2022-08-09T18:34:35.286Z,38.51
2022-08-09T18:37:10.511Z,38.78
2022-08-09T18:39:55.642Z,39.15
2022-08-09T18:42:31.240Z,39.55
2022-08-09T18:45:01.064Z,39.58
2022-08-09T18:47:32.743Z,39.91
2022-08-09T18:50:06.118Z,40.01
2022-08-09T18:52:39.465Z,40.21
2022-08-09T18:55:13.571Z,40.20
2022-08-09T18:57:43.513Z,40.99
2022-08-09T19:00:16.688Z,41.13
2022-08-09T19:02:48.098Z,41.12
2022-08-09T19:05:48.987Z,41.21
2022-08-09T19:08:14.190Z,41.68
2022-08-09T19:10:45.798Z,41.87
2022-08-09T19:13:20.619Z,42.03
2022-08-09T19:15:56.293Z,42.10
2022-08-09T19:18:34.914Z,42.14
2022-08-09T19:21:10.445Z,42.29
2022-08-09T19:24:36.588Z,42.26
2022-08-09T19:26:37.697Z,42.49
2022-08-09T19:29:09.778Z,42.70
2022-08-09T19:31:51.266Z,43.03
2022-08-09T19:34:23.172Z,42.90
2022-08-09T19:36:57.622Z,43.12
2022-08-09T19:39:43.045Z,43.51
2022-08-09T19:42:14.994Z,43.42
2022-08-09T19:44:50.919Z,43.85
2022-08-09T19:47:19.836Z,43.79
2022-08-09T19:50:06.678Z,44.00
2022-08-09T19:52:37.127Z,44.11
2022-08-09T19:55:15.911Z,44.20
2022-08-09T19:57:46.029Z,44.43
2022-08-09T20:00:13.405Z,44.65
2022-08-09T20:04:11.032Z,44.82
2022-08-09T20:05:27.502Z,44.86
2022-08-09T20:08:00.255Z,45.23
2022-08-09T20:10:34.436Z,45.36
2022-08-09T20:13:04.918Z,45.36
2022-08-09T20:16:35.105Z,45.28
2022-08-09T20:18:19.692Z,45.73
2022-08-09T20:20:47.231Z,45.57
2022-08-09T20:23:17.343Z,45.50
2022-08-09T20:25:52.357Z,45.50
2022-08-09T20:28:34.146Z,45.97
2022-08-09T20:31:04.624Z,45.80
2022-08-09T20:33:38.878Z,45.92
2022-08-09T20:36:10.586Z,46.39
2022-08-09T20:41:35.589Z,46.38
2022-08-09T20:44:09.789Z,46.34
2022-08-09T20:46:44.458Z,46.14
2022-08-09T20:49:14.000Z,46.56
2022-08-09T20:51:43.104Z,46.61
2022-08-09T20:54:17.199Z,46.57
2022-08-09T20:56:49.472Z,46.90
2022-08-09T20:59:50.037Z,47.33
2022-08-09T21:02:08.758Z,47.49
2022-08-09T21:05:56.394Z,47.30
2022-08-09T21:07:38.680Z,47.46
2022-08-09T21:10:11.997Z,48.16
2022-08-09T21:12:38.894Z,48.56
2022-08-09T21:15:06.413Z,48.75
2022-08-09T21:18:21.068Z,49.23
2022-08-09T21:20:26.688Z,49.72
2022-08-09T21:22:56.802Z,50.04
2022-08-09T21:25:44.489Z,50.12
2022-08-09T21:28:33.411Z,51.27
2022-08-09T21:31:13.498Z,51.45
2022-08-09T21:33:51.531Z,51.85
2022-08-09T21:36:28.125Z,52.15
2022-08-09T21:38:57.310Z,52.77
2022-08-09T21:42:05.034Z,52.91
2022-08-09T21:44:34.062Z,53.28
2022-08-09T21:47:08.879Z,53.64
2022-08-09T21:49:43.062Z,53.74
2022-08-09T21:52:18.119Z,54.43
2022-08-09T21:54:49.664Z,54.67
2022-08-09T21:57:36.978Z,54.94
2022-08-09T22:00:15.878Z,55.08
2022-08-09T22:02:43.194Z,55.71
2022-08-09T22:05:22.869Z,55.84
2022-08-09T22:07:53.388Z,55.83
2022-08-09T22:10:23.247Z,55.94
2022-08-09T22:12:52.108Z,56.36
2022-08-09T22:15:20.730Z,56.35
2022-08-09T22:17:50.565Z,57.00
2022-08-09T22:20:21.989Z,56.67
2022-08-09T22:22:53.887Z,56.73
2022-08-09T22:26:07.643Z,57.18
2022-08-09T22:28:09.327Z,57.53
2022-08-09T22:30:36.668Z,57.44
2022-08-09T22:33:09.455Z,57.72
2022-08-09T22:36:01.247Z,58.13
2022-08-09T22:38:28.476Z,57.83
2022-08-09T22:40:58.122Z,58.63
2022-08-09T22:44:00.803Z,58.63
2022-08-09T22:48:14.551Z,58.28
2022-08-09T22:49:10.164Z,58.44
2022-08-09T22:51:39.334Z,58.49
2022-08-09T22:54:08.076Z,58.66
2022-08-09T22:56:38.172Z,58.46
2022-08-09T22:59:55.885Z,59.01
2022-08-09T23:01:55.584Z,58.76
2022-08-09T23:04:22.918Z,58.66
2022-08-09T23:07:11.454Z,58.80
2022-08-09T23:09:40.681Z,59.04
2022-08-09T23:12:07.515Z,59.11
2022-08-09T23:14:41.328Z,59.17
2022-08-09T23:17:09.931Z,59.22
2022-08-09T23:20:06.388Z,59.28
2022-08-09T23:22:25.620Z,59.25
2022-08-09T23:24:52.234Z,59.40
2022-08-09T23:27:19.020Z,59.44
2022-08-09T23:29:45.693Z,59.60
2022-08-09T23:32:14.373Z,59.68
2022-08-09T23:34:41.018Z,59.66
2022-08-09T23:37:07.747Z,59.96
2022-08-09T23:39:34.349Z,60.43
2022-08-09T23:42:01.030Z,60.21
2022-08-09T23:44:29.763Z,60.27
2022-08-09T23:46:57.832Z,60.19
2022-08-09T23:49:25.674Z,60.33
2022-08-09T23:51:53.088Z,60.45
2022-08-09T23:54:21.562Z,60.86
2022-08-09T23:56:56.012Z,60.56
2022-08-09T23:59:46.279Z,60.59
